Time;durP1;ratioP1;P1;durP2;ratioP2;P2;SDS_P1;SDS_P2;PMS_P1;PMS_P2;Temp;Humidity;BMP_temperature;BMP_pressure;BME280_temperature;BME280_humidity;BME280_pressure;Samples;Min_cycle;Max_cycle;Signal;HPM_P1;HPM_P2
2024/03/04 00:02:01;;;;;;;3.33;1.42;;;7.90;99.90;;;;;;4265276;27;20493;-56
2024/03/04 00:04:03;;;;;;;2.50;1.60;;;7.90;99.90;;;;;;4264774;27;20035;-57
2024/03/04 00:06:05;;;;;;;1.52;1.42;;;7.80;99.90;;;;;;4265187;27;20065;-56
2024/03/04 00:08:07;;;;;;;2.17;1.48;;;7.80;99.90;;;;;;4265263;27;20045;-56
2024/03/04 00:10:10;;;;;;;1.55;1.33;;;7.80;99.90;;;;;;4265056;27;20047;-56
2024/03/04 00:12:14;;;;;;;3.95;1.83;;;7.70;99.90;;;;;;4267834;27;20074;-56
2024/03/04 00:14:18;;;;;;;1.48;1.23;;;7.70;99.90;;;;;;4268191;27;20046;-56
2024/03/04 00:16:20;;;;;;;2.15;1.90;;;7.80;99.90;;;;;;4268460;27;20050;-57
2024/03/04 00:18:23;;;;;;;3.40;2.40;;;7.70;99.90;;;;;;4268105;27;20099;-57
2024/03/04 00:20:26;;;;;;;2.07;1.47;;;7.80;99.90;;;;;;4268022;27;20057;-56
2024/03/04 00:22:28;;;;;;;1.70;1.52;;;7.80;99.90;;;;;;4249621;27;20443;-56
2024/03/04 00:24:32;;;;;;;2.17;1.00;;;7.80;99.90;;;;;;4268233;27;20503;-55
2024/03/04 00:26:35;;;;;;;2.47;1.20;;;7.80;99.90;;;;;;4268033;27;20043;-57
2024/03/04 00:28:37;;;;;;;4.43;1.58;;;7.70;99.90;;;;;;4267499;27;20050;-57
2024/03/04 00:30:44;;;;;;;4.60;2.00;;;7.70;99.90;;;;;;4268122;27;20058;-57
2024/03/04 00:32:47;;;;;;;3.10;1.90;;;7.60;99.90;;;;;;4249493;27;20043;-56
2024/03/04 00:34:49;;;;;;;2.75;1.45;;;7.60;99.90;;;;;;4267988;27;20039;-56
2024/03/04 00:36:51;;;;;;;4.00;1.90;;;7.60;99.90;;;;;;4268069;27;20042;-56
2024/03/04 00:38:57;;;;;;;5.47;2.33;;;7.60;99.90;;;;;;4267985;27;20069;-57
2024/03/04 00:40:59;;;;;;;5.53;2.00;;;7.50;99.90;;;;;;4268007;27;20477;-55
2024/03/04 00:43:01;;;;;;;1.33;1.23;;;7.50;99.90;;;;;;4267903;27;20474;-55
2024/03/04 00:45:05;;;;;;;4.25;1.50;;;7.50;99.90;;;;;;4267771;27;20489;-55
2024/03/04 00:47:08;;;;;;;2.55;1.10;;;7.50;99.90;;;;;;4249132;27;20086;-57
2024/03/04 00:49:10;;;;;;;7.55;2.13;;;7.50;99.90;;;;;;4267992;27;20070;-56
2024/03/04 00:51:15;;;;;;;2.85;1.50;;;7.50;99.90;;;;;;4268133;27;20039;-56
2024/03/04 00:53:17;;;;;;;1.50;1.00;;;7.40;99.90;;;;;;4268516;27;20073;-57
2024/03/04 00:55:19;;;;;;;4.25;1.90;;;7.40;99.90;;;;;;4268987;27;20046;-55
2024/03/04 00:57:21;;;;;;;3.40;2.05;;;7.30;99.90;;;;;;4268215;27;20045;-56
2024/03/04 00:59:23;;;;;;;2.05;1.67;;;7.20;99.90;;;;;;4267755;27;20050;-56
2024/03/04 01:01:27;;;;;;;2.38;1.15;;;7.30;99.90;;;;;;4267555;27;20125;-56
2024/03/04 01:03:31;;;;;;;1.48;1.15;;;7.30;99.90;;;;;;4267637;27;20043;-56
2024/03/04 01:05:33;;;;;;;3.90;1.30;;;7.40;99.90;;;;;;4268273;27;20051;-55
2024/03/04 01:07:35;;;;;;;3.83;2.28;;;7.40;99.90;;;;;;4267914;27;20122;-56
2024/03/04 01:09:37;;;;;;;1.60;1.23;;;7.40;99.90;;;;;;4267391;27;20099;-56
2024/03/04 01:11:39;;;;;;;2.17;1.77;;;7.20;99.90;;;;;;4267394;27;20047;-56
2024/03/04 01:13:41;;;;;;;3.05;1.92;;;7.20;99.90;;;;;;4267427;27;20099;-56
2024/03/04 01:15:44;;;;;;;1.85;1.48;;;7.20;99.90;;;;;;4267400;27;20096;-56
2024/03/04 01:17:46;;;;;;;1.70;1.45;;;7.20;99.90;;;;;;4267160;27;20074;-55
2024/03/04 01:19:50;;;;;;;3.90;1.48;;;7.10;99.90;;;;;;4267209;27;20046;-55
2024/03/04 01:21:53;;;;;;;3.67;2.13;;;7.10;99.90;;;;;;4267554;27;20065;-56
2024/03/04 01:23:56;;;;;;;2.50;1.92;;;7.10;99.90;;;;;;4266510;27;20074;-57
2024/03/04 01:25:58;;;;;;;7.60;2.17;;;7.10;99.90;;;;;;4267023;27;20056;-56
2024/03/04 01:28:00;;;;;;;1.40;1.08;;;7.00;99.90;;;;;;4267407;27;20051;-56
2024/03/04 01:30:03;;;;;;;2.05;1.50;;;7.20;99.90;;;;;;4267211;27;20043;-57
2024/03/04 01:32:06;;;;;;;1.90;1.10;;;7.10;99.90;;;;;;4267017;27;20103;-58
2024/03/04 01:34:08;;;;;;;1.30;0.93;;;7.10;99.90;;;;;;4248649;27;20066;-57
2024/03/04 01:36:12;;;;;;;2.13;1.55;;;7.10;99.90;;;;;;4267350;27;20043;-56
2024/03/04 01:38:15;;;;;;;1.95;1.15;;;7.00;99.90;;;;;;4266980;27;20413;-57
2024/03/04 01:40:18;;;;;;;1.38;0.90;;;7.00;99.90;;;;;;4268863;27;20422;-56
2024/03/04 01:42:20;;;;;;;10.50;2.05;;;6.90;99.90;;;;;;4269065;27;20096;-57
2024/03/04 01:44:30;;;;;;;1.73;1.00;;;6.90;99.90;;;;;;4267959;27;20047;-56
2024/03/04 01:46:33;;;;;;;2.67;1.08;;;6.70;99.90;;;;;;4266513;27;20049;-56
2024/03/04 01:48:37;;;;;;;2.00;1.35;;;6.60;99.90;;;;;;4266749;27;20038;-56
2024/03/04 01:50:41;;;;;;;2.15;1.20;;;6.70;99.90;;;;;;4266983;27;20050;-56
2024/03/04 01:52:47;;;;;;;1.52;1.30;;;7.00;99.90;;;;;;4248538;27;20050;-57
2024/03/04 01:54:53;;;;;;;5.18;1.33;;;7.10;99.90;;;;;;4266887;27;20107;-57
2024/03/04 01:56:56;;;;;;;1.63;1.45;;;7.10;99.90;;;;;;4266613;27;20043;-57
2024/03/04 01:58:58;;;;;;;1.48;1.02;;;7.00;99.90;;;;;;4266537;27;20050;-56
2024/03/04 02:01:04;;;;;;;1.40;0.80;;;7.00;99.90;;;;;;4247904;27;20039;-56
2024/03/04 02:03:09;;;;;;;2.08;1.10;;;6.90;99.90;;;;;;4266163;27;20066;-57
2024/03/04 02:05:11;;;;;;;1.60;1.25;;;6.90;99.90;;;;;;4266546;27;20049;-55
2024/03/04 02:07:19;;;;;;;1.92;1.10;;;6.80;99.90;;;;;;4249096;27;20508;-56
2024/03/04 02:09:30;;;;;;;1.45;1.35;;;6.80;99.90;;;;;;4266707;27;20064;-55
2024/03/04 02:11:33;;;;;;;2.08;1.50;;;6.70;99.90;;;;;;4266304;27;20074;-56
2024/03/04 02:13:37;;;;;;;5.78;1.67;;;6.70;99.90;;;;;;4266459;27;20053;-57
2024/03/04 02:15:39;;;;;;;2.65;1.60;;;6.70;99.90;;;;;;4265721;27;20046;-56
2024/03/04 02:17:41;;;;;;;2.10;1.17;;;6.60;99.90;;;;;;4266263;27;20046;-56
2024/03/04 02:19:44;;;;;;;2.30;1.30;;;6.60;99.90;;;;;;4266173;27;20051;-56
2024/03/04 02:21:51;;;;;;;1.75;1.30;;;6.50;99.90;;;;;;4266312;27;20047;-57
2024/03/04 02:23:55;;;;;;;1.20;0.98;;;6.40;99.90;;;;;;4266944;27;20066;-56
2024/03/04 02:25:57;;;;;;;5.47;1.70;;;6.60;99.90;;;;;;4266932;27;20042;-60
2024/03/04 02:28:00;;;;;;;8.70;2.55;;;6.50;99.90;;;;;;4267047;27;20078;-56
2024/03/04 02:30:04;;;;;;;2.58;1.23;;;6.40;99.90;;;;;;4266245;27;20135;-55
2024/03/04 02:32:06;;;;;;;2.42;1.42;;;6.50;99.90;;;;;;4266834;27;20046;-56
2024/03/04 02:34:10;;;;;;;1.17;1.02;;;6.40;99.90;;;;;;4266076;27;20039;-56
2024/03/04 02:36:12;;;;;;;1.97;1.17;;;6.30;99.90;;;;;;4266317;27;20046;-62
2024/03/04 02:38:15;;;;;;;1.55;1.35;;;6.50;99.90;;;;;;4266481;27;20442;-57
2024/03/04 02:40:19;;;;;;;2.45;1.00;;;6.50;99.90;;;;;;4266650;27;20054;-60
2024/03/04 02:42:21;;;;;;;2.58;1.52;;;6.50;99.90;;;;;;4267948;27;20042;-65
2024/03/04 02:44:23;;;;;;;1.23;0.82;;;6.50;99.90;;;;;;4266664;27;20050;-56
2024/03/04 02:46:26;;;;;;;2.90;0.70;;;6.50;99.90;;;;;;4266899;27;20111;-57
2024/03/04 02:48:29;;;;;;;1.90;1.33;;;6.50;99.90;;;;;;4266604;27;20038;-55
2024/03/04 02:50:33;;;;;;;1.85;1.27;;;6.60;99.90;;;;;;4266683;27;20100;-56
2024/03/04 02:52:35;;;;;;;1.13;0.90;;;6.60;99.90;;;;;;4266596;27;20046;-56
2024/03/04 02:54:37;;;;;;;1.02;0.85;;;6.60;99.90;;;;;;4266501;27;20043;-56
2024/03/04 02:56:41;;;;;;;0.80;0.80;;;6.60;99.90;;;;;;4266906;27;20042;-56
2024/03/04 02:58:43;;;;;;;1.45;1.27;;;6.50;99.90;;;;;;4266301;27;20068;-56
2024/03/04 03:00:46;;;;;;;1.30;1.20;;;6.50;99.90;;;;;;4266693;27;20054;-57
2024/03/04 03:02:48;;;;;;;0.90;0.90;;;6.50;99.90;;;;;;4248478;27;20035;-57
2024/03/04 03:04:50;;;;;;;0.60;0.60;;;6.50;99.90;;;;;;4267119;27;20107;-56
2024/03/04 03:06:52;;;;;;;0.80;0.70;;;6.50;99.90;;;;;;4268210;27;20381;-56
2024/03/04 03:08:54;;;;;;;5.80;2.15;;;6.50;99.90;;;;;;4267856;27;20050;-60
2024/03/04 03:10:57;;;;;;;1.58;1.33;;;6.50;99.90;;;;;;4268112;27;20512;-55
2024/03/04 03:13:00;;;;;;;2.03;1.23;;;6.50;99.90;;;;;;4265790;27;20513;-56
2024/03/04 03:15:04;;;;;;;1.13;0.60;;;6.50;99.90;;;;;;4265562;27;20073;-56
2024/03/04 03:17:06;;;;;;;2.08;1.45;;;6.40;99.90;;;;;;4265683;27;20413;-57
2024/03/04 03:19:18;;;;;;;0.68;0.65;;;6.40;99.90;;;;;;4265397;27;20133;-57
2024/03/04 03:21:20;;;;;;;0.95;0.88;;;6.40;99.90;;;;;;4265668;27;20047;-56
2024/03/04 03:23:22;;;;;;;3.90;2.28;;;6.30;99.90;;;;;;4265537;27;20043;-56
2024/03/04 03:25:26;;;;;;;8.00;2.45;;;6.40;99.90;;;;;;4266618;27;20443;-61
2024/03/04 03:27:28;;;;;;;1.17;1.08;;;6.40;99.90;;;;;;4266543;27;20054;-59
2024/03/04 03:29:32;;;;;;;3.03;1.50;;;6.40;99.90;;;;;;4265872;27;20047;-56
2024/03/04 03:31:34;;;;;;;2.88;1.10;;;6.40;99.90;;;;;;4265634;27;20054;-57
2024/03/04 03:33:37;;;;;;;2.28;0.95;;;6.30;99.90;;;;;;4265546;27;20053;-56
2024/03/04 03:35:39;;;;;;;5.32;2.13;;;6.40;99.90;;;;;;4265494;27;20043;-56
2024/03/04 03:37:41;;;;;;;1.73;0.95;;;6.30;99.90;;;;;;4265259;27;20046;-56
2024/03/04 03:39:44;;;;;;;1.02;0.95;;;6.40;99.90;;;;;;4265211;27;20043;-56
2024/03/04 03:41:46;;;;;;;2.13;1.92;;;6.30;99.90;;;;;;4265188;27;20122;-57
2024/03/04 03:43:48;;;;;;;1.77;1.02;;;6.30;99.90;;;;;;4265475;27;20042;-55
2024/03/04 03:45:52;;;;;;;2.55;1.73;;;6.30;99.90;;;;;;4266017;27;20476;-56
2024/03/04 03:47:54;;;;;;;0.95;0.80;;;6.40;99.90;;;;;;4268857;27;20130;-55
2024/03/04 03:50:01;;;;;;;2.70;1.23;;;6.40;99.90;;;;;;4268992;27;20525;-63
2024/03/04 03:52:03;;;;;;;1.75;1.35;;;6.40;99.90;;;;;;4268755;27;20477;-56
2024/03/04 03:54:06;;;;;;;2.55;1.83;;;6.30;99.90;;;;;;4268967;27;20076;-56
2024/03/04 03:56:09;;;;;;;2.25;1.15;;;6.40;99.90;;;;;;4268246;27;20119;-56
2024/03/04 03:58:11;;;;;;;2.67;1.38;;;6.40;99.90;;;;;;4268844;27;20541;-55
2024/03/04 04:00:14;;;;;;;2.47;1.55;;;6.40;99.90;;;;;;4268538;27;20046;-57
2024/03/04 04:02:17;;;;;;;1.70;1.20;;;6.40;99.90;;;;;;4250264;27;20505;-56
2024/03/04 04:04:20;;;;;;;2.15;1.70;;;6.40;99.90;;;;;;4268692;27;20050;-56
2024/03/04 04:06:22;;;;;;;3.17;1.73;;;6.30;99.90;;;;;;4268500;27;20047;-56
2024/03/04 04:08:24;;;;;;;8.75;2.15;;;6.30;99.90;;;;;;4268417;27;20129;-56
2024/03/04 04:10:26;;;;;;;3.60;2.03;;;6.30;99.90;;;;;;4268401;27;20039;-59
2024/03/04 04:12:28;;;;;;;1.70;1.35;;;6.30;99.90;;;;;;4268459;27;20057;-56
2024/03/04 04:14:30;;;;;;;2.15;1.38;;;6.40;99.90;;;;;;4270134;27;20047;-60
2024/03/04 04:16:33;;;;;;;3.90;3.10;;;6.40;99.90;;;;;;4270283;27;20047;-57
2024/03/04 04:18:37;;;;;;;1.27;1.00;;;6.40;99.90;;;;;;4269329;27;20050;-60
2024/03/04 04:20:39;;;;;;;1.40;1.27;;;6.50;99.90;;;;;;4234283;28;20036;-55
2024/03/04 04:22:42;;;;;;;1.08;0.77;;;6.50;99.90;;;;;;4234282;28;20096;-56
2024/03/04 04:24:45;;;;;;;2.10;1.60;;;6.50;99.90;;;;;;4234227;28;20079;-57
2024/03/04 04:26:47;;;;;;;5.03;1.77;;;6.50;99.90;;;;;;4234021;28;20039;-57
2024/03/04 04:28:49;;;;;;;0.68;0.68;;;6.50;99.90;;;;;;4236068;28;20067;-60
2024/03/04 04:30:51;;;;;;;1.20;1.00;;;6.40;99.90;;;;;;4235949;28;20052;-56
2024/03/04 04:32:53;;;;;;;1.52;1.15;;;6.30;99.90;;;;;;4234910;28;20096;-56
2024/03/04 04:34:56;;;;;;;1.45;0.80;;;6.40;99.90;;;;;;4234943;28;20059;-56
2024/03/04 04:36:58;;;;;;;1.40;1.10;;;6.40;99.90;;;;;;4234712;28;20040;-56
2024/03/04 04:39:01;;;;;;;1.25;1.10;;;6.50;99.90;;;;;;4234554;28;20100;-56
2024/03/04 04:41:04;;;;;;;2.20;1.20;;;6.40;99.90;;;;;;4233352;28;20089;-56
2024/03/04 04:43:06;;;;;;;1.60;0.90;;;6.40;99.90;;;;;;4234711;28;20126;-57
2024/03/04 04:45:09;;;;;;;2.63;1.77;;;6.40;99.90;;;;;;4234205;28;20048;-56
2024/03/04 04:47:11;;;;;;;1.27;1.17;;;6.30;99.90;;;;;;4233646;28;20079;-57
2024/03/04 04:49:13;;;;;;;1.15;0.93;;;6.40;99.90;;;;;;4233944;28;20059;-56
2024/03/04 04:51:20;;;;;;;3.13;0.90;;;6.40;99.90;;;;;;4234098;28;20101;-56
2024/03/04 04:53:24;;;;;;;1.23;1.10;;;6.40;99.90;;;;;;4233730;28;20048;-58
2024/03/04 04:55:27;;;;;;;0.98;0.57;;;6.30;99.90;;;;;;4234468;28;20048;-56
2024/03/04 04:57:29;;;;;;;1.05;0.88;;;6.30;99.90;;;;;;4231995;28;20043;-56
2024/03/04 04:59:31;;;;;;;1.15;0.95;;;6.30;99.90;;;;;;4233570;28;20406;-56
2024/03/04 05:01:33;;;;;;;1.88;0.95;;;6.40;99.90;;;;;;4233574;28;20096;-56
2024/03/04 05:03:35;;;;;;;2.65;0.85;;;6.40;99.90;;;;;;4216660;28;20410;-56
2024/03/04 05:05:59;;;;;;;4.13;1.85;;;6.40;99.90;;;;;;4216782;28;20411;-57
2024/03/04 05:08:05;;;;;;;0.63;0.57;;;6.30;99.90;;;;;;4216351;28;20533;-56
2024/03/04 05:10:08;;;;;;;2.03;1.08;;;6.30;99.90;;;;;;4217379;28;20082;-56
2024/03/04 05:12:10;;;;;;;1.02;0.95;;;6.20;99.90;;;;;;4218105;28;20071;-55
2024/03/04 05:14:13;;;;;;;0.82;0.68;;;6.30;99.90;;;;;;4217120;28;20105;-55
2024/03/04 05:16:16;;;;;;;1.08;0.50;;;6.20;99.90;;;;;;4216394;28;20411;-55
2024/03/04 05:18:18;;;;;;;16.98;2.42;;;6.20;99.90;;;;;;4216138;28;20055;-56
2024/03/04 05:20:21;;;;;;;1.02;0.90;;;6.20;99.90;;;;;;4245022;27;20054;-62
2024/03/04 05:22:23;;;;;;;1.30;1.13;;;6.30;99.90;;;;;;4249788;27;20051;-55
2024/03/04 05:24:27;;;;;;;1.35;1.25;;;6.40;99.90;;;;;;4250058;27;20405;-57
2024/03/04 05:26:29;;;;;;;3.75;1.20;;;6.30;99.90;;;;;;4250292;27;20526;-56
2024/03/04 05:28:31;;;;;;;1.23;1.05;;;6.40;99.90;;;;;;4249929;27;20055;-56
2024/03/04 05:30:33;;;;;;;2.00;0.82;;;6.30;99.90;;;;;;4248677;27;20072;-56
2024/03/04 05:32:35;;;;;;;0.40;0.40;;;6.40;99.90;;;;;;4248879;27;20468;-56
2024/03/04 05:34:40;;;;;;;0.82;0.82;;;6.30;99.90;;;;;;4249877;27;20067;-56
2024/03/04 05:36:43;;;;;;;1.67;1.38;;;6.30;99.90;;;;;;4249096;27;20047;-57
2024/03/04 05:38:45;;;;;;;0.95;0.73;;;6.40;99.90;;;;;;4249671;27;20296;-56
2024/03/04 05:40:49;;;;;;;3.83;1.65;;;6.30;99.90;;;;;;4249505;27;20108;-54
2024/03/04 05:42:51;;;;;;;1.45;0.82;;;6.20;99.90;;;;;;4249605;27;20426;-55
2024/03/04 05:44:54;;;;;;;1.77;0.65;;;6.10;99.90;;;;;;4250001;27;20074;-55
2024/03/04 05:46:57;;;;;;;2.25;1.70;;;6.10;99.90;;;;;;4249627;27;20043;-56
2024/03/04 05:48:59;;;;;;;0.75;0.73;;;6.10;99.90;;;;;;4249609;27;20440;-55
2024/03/04 05:51:03;;;;;;;0.52;0.50;;;6.10;99.90;;;;;;4249661;27;20054;-55
2024/03/04 05:53:05;;;;;;;0.85;0.73;;;6.10;99.90;;;;;;4249392;27;20051;-57
2024/03/04 05:55:07;;;;;;;1.60;1.33;;;6.10;99.90;;;;;;4249712;27;20508;-56
2024/03/04 05:57:10;;;;;;;0.60;0.60;;;6.10;99.90;;;;;;4249735;27;20043;-56
2024/03/04 05:59:13;;;;;;;2.53;1.25;;;6.10;99.90;;;;;;4249414;27;20516;-55
2024/03/04 06:01:15;;;;;;;1.95;1.17;;;6.10;99.90;;;;;;4249688;27;20387;-55
2024/03/04 06:03:17;;;;;;;3.20;1.27;;;6.10;99.90;;;;;;4264367;27;20042;-56
2024/03/04 06:05:19;;;;;;;1.13;0.93;;;6.00;99.90;;;;;;4266852;27;20056;-55
2024/03/04 06:07:21;;;;;;;1.33;0.60;;;5.90;99.90;;;;;;4266283;27;20042;-55
2024/03/04 06:09:26;;;;;;;0.70;0.55;;;5.90;99.90;;;;;;4266578;27;20046;-57
2024/03/04 06:11:28;;;;;;;0.80;0.75;;;6.00;99.90;;;;;;4248250;27;20104;-57
2024/03/04 06:13:32;;;;;;;2.35;1.13;;;6.20;99.90;;;;;;4267061;27;20087;-56
2024/03/04 06:15:34;;;;;;;0.77;0.77;;;6.10;99.90;;;;;;4266949;27;20039;-55
2024/03/04 06:17:36;;;;;;;0.57;0.52;;;6.10;99.90;;;;;;4268812;27;20051;-61
2024/03/04 06:19:38;;;;;;;2.58;1.75;;;6.10;99.90;;;;;;4248674;27;20130;-56
2024/03/04 06:21:42;;;;;;;1.17;1.08;;;6.10;99.90;;;;;;4266982;27;20043;-56
2024/03/04 06:23:45;;;;;;;0.70;0.70;;;6.10;99.90;;;;;;4266934;27;20117;-57
2024/03/04 06:25:47;;;;;;;1.85;1.55;;;6.10;99.90;;;;;;4266589;27;20477;-58
2024/03/04 06:27:52;;;;;;;1.30;0.82;;;6.10;99.90;;;;;;4265988;27;20046;-56
2024/03/04 06:29:58;;;;;;;1.02;0.93;;;6.10;99.90;;;;;;4266212;27;20043;-56
2024/03/04 06:32:00;;;;;;;1.75;1.17;;;6.10;99.90;;;;;;4266338;27;20049;-56
2024/03/04 06:34:02;;;;;;;1.25;0.77;;;6.00;99.90;;;;;;4266216;27;20167;-56
2024/03/04 06:36:20;;;;;;;1.42;1.20;;;6.00;99.90;;;;;;4265699;27;20533;-56
2024/03/04 06:38:25;;;;;;;0.88;0.70;;;5.90;99.90;;;;;;4266368;27;20477;-55
2024/03/04 06:40:31;;;;;;;2.10;1.30;;;5.80;99.90;;;;;;4266026;27;20465;-55
2024/03/04 06:42:33;;;;;;;4.10;1.17;;;5.80;99.90;;;;;;4265916;27;20046;-56
2024/03/04 06:44:36;;;;;;;2.90;1.48;;;5.80;99.90;;;;;;4247742;27;20101;-54
2024/03/04 06:46:40;;;;;;;1.00;1.00;;;5.90;99.90;;;;;;4265933;27;20034;-55
2024/03/04 06:48:42;;;;;;;0.90;0.90;;;5.80;99.90;;;;;;4267085;27;20093;-55
2024/03/04 06:50:44;;;;;;;1.33;0.98;;;5.90;99.90;;;;;;4268903;27;20451;-57
2024/03/04 06:52:46;;;;;;;1.92;1.45;;;5.90;99.90;;;;;;4267809;27;20043;-56
2024/03/04 06:54:49;;;;;;;2.88;1.67;;;5.90;99.90;;;;;;4266404;27;20472;-56
2024/03/04 06:56:51;;;;;;;1.38;1.27;;;6.00;99.90;;;;;;4265855;27;20095;-56
2024/03/04 06:58:53;;;;;;;3.60;1.60;;;6.10;99.90;;;;;;4265999;27;20481;-56
2024/03/04 07:00:55;;;;;;;2.53;1.25;;;6.10;99.90;;;;;;4265902;27;20126;-55
2024/03/04 07:02:59;;;;;;;2.53;1.50;;;6.10;99.90;;;;;;4265751;27;20093;-56
2024/03/04 07:05:01;;;;;;;2.72;1.13;;;6.10;99.90;;;;;;4265465;27;20054;-56
2024/03/04 07:07:04;;;;;;;1.58;0.93;;;6.10;99.90;;;;;;4265545;27;20039;-56
2024/03/04 07:09:06;;;;;;;1.58;1.48;;;6.30;99.90;;;;;;4265658;27;20038;-57
2024/03/04 07:11:09;;;;;;;0.98;0.95;;;6.30;99.90;;;;;;4264834;27;20042;-56
2024/03/04 07:13:11;;;;;;;3.80;1.33;;;6.40;99.90;;;;;;4265740;27;20469;-55
2024/03/04 07:15:13;;;;;;;2.90;1.30;;;6.40;99.90;;;;;;4265628;27;20049;-57
2024/03/04 07:17:15;;;;;;;3.60;1.10;;;6.30;99.90;;;;;;4265630;27;20397;-56
2024/03/04 07:19:19;;;;;;;2.38;0.98;;;6.30;99.90;;;;;;4265152;27;20056;-57
2024/03/04 07:21:22;;;;;;;2.08;1.23;;;6.50;99.90;;;;;;4265201;27;20042;-56
2024/03/04 07:23:25;;;;;;;9.15;1.42;;;6.70;99.90;;;;;;4265569;27;20046;-56
2024/03/04 07:25:27;;;;;;;1.42;1.33;;;7.00;99.90;;;;;;4265525;27;20074;-56
2024/03/04 07:27:29;;;;;;;2.67;1.23;;;7.30;99.90;;;;;;4247200;27;20039;-56
2024/03/04 07:29:31;;;;;;;1.98;1.08;;;7.70;99.90;;;;;;4265590;27;20046;-56
2024/03/04 07:31:45;;;;;;;3.80;1.65;;;8.00;99.90;;;;;;4265528;27;20066;-56
2024/03/04 07:33:47;;;;;;;1.48;0.88;;;8.10;99.90;;;;;;4265241;27;20126;-57
2024/03/04 07:35:52;;;;;;;1.92;1.52;;;8.30;99.90;;;;;;4265425;27;20074;-57
2024/03/04 07:37:54;;;;;;;4.95;1.30;;;8.50;99.60;;;;;;4265407;27;20070;-56
2024/03/04 07:39:56;;;;;;;1.30;0.88;;;8.60;99.10;;;;;;4265299;27;20078;-58
2024/03/04 07:41:58;;;;;;;2.13;1.55;;;8.60;99.20;;;;;;4265258;27;20112;-57
2024/03/04 07:44:00;;;;;;;2.28;1.15;;;8.60;99.20;;;;;;4265406;27;20114;-57
2024/03/04 07:46:03;;;;;;;0.93;0.60;;;8.70;98.90;;;;;;4265436;27;20081;-57
2024/03/04 07:48:06;;;;;;;3.03;1.55;;;8.80;98.70;;;;;;4265057;27;20038;-56
2024/03/04 07:50:08;;;;;;;2.33;1.00;;;8.90;98.70;;;;;;4265329;27;20047;-56
2024/03/04 07:52:11;;;;;;;2.53;1.25;;;9.10;99.00;;;;;;4265452;27;20043;-58
2024/03/04 07:54:13;;;;;;;1.80;0.80;;;9.50;98.50;;;;;;4266263;27;20477;-59
2024/03/04 07:56:15;;;;;;;1.02;0.93;;;9.80;98.00;;;;;;4266200;27;20063;-58
2024/03/04 07:58:17;;;;;;;0.93;0.80;;;10.00;97.30;;;;;;4266350;27;20057;-56
2024/03/04 08:00:20;;;;;;;5.22;2.70;;;10.30;97.20;;;;;;4266690;27;20042;-57
2024/03/04 08:02:22;;;;;;;2.08;1.00;;;10.50;97.30;;;;;;4247649;27;20055;-58
2024/03/04 08:04:24;;;;;;;3.65;0.73;;;10.80;96.70;;;;;;4250129;27;20043;-59
2024/03/04 08:06:26;;;;;;;1.25;0.93;;;11.00;96.90;;;;;;4247801;28;20134;-58
2024/03/04 08:08:30;;;;;;;2.10;0.60;;;11.10;95.70;;;;;;4248152;27;20036;-58
2024/03/04 08:10:32;;;;;;;0.60;0.60;;;11.20;95.60;;;;;;4248104;27;20046;-57
2024/03/04 08:12:42;;;;;;;1.83;1.30;;;11.20;96.10;;;;;;4248093;27;20047;-59
2024/03/04 08:14:44;;;;;;;3.85;1.35;;;11.30;95.60;;;;;;4246810;27;20563;-58
2024/03/04 08:16:48;;;;;;;2.22;1.20;;;11.30;95.60;;;;;;4247915;27;20043;-57
2024/03/04 08:18:50;;;;;;;2.72;1.67;;;11.40;95.20;;;;;;4246943;28;20485;-66
2024/03/04 08:20:54;;;;;;;1.42;0.60;;;11.40;95.30;;;;;;4247914;27;20068;-55
2024/03/04 08:23:01;;;;;;;1.92;1.02;;;11.30;95.40;;;;;;4247811;27;20071;-54
2024/03/04 08:25:06;;;;;;;2.90;1.35;;;11.00;95.10;;;;;;4247807;27;20223;-54
2024/03/04 08:27:09;;;;;;;1.08;0.90;;;11.00;95.60;;;;;;4247844;27;20080;-58
2024/03/04 08:29:11;;;;;;;1.15;0.70;;;10.70;95.60;;;;;;4247911;27;20492;-58
2024/03/04 08:31:16;;;;;;;3.17;0.85;;;10.50;96.60;;;;;;4247546;27;20096;-57
2024/03/04 08:33:24;;;;;;;1.98;1.38;;;10.40;96.90;;;;;;4249012;27;20058;-56
2024/03/04 08:35:27;;;;;;;2.42;2.00;;;10.10;96.90;;;;;;4250394;27;20051;-57
2024/03/04 08:37:29;;;;;;;1.10;1.00;;;10.10;97.30;;;;;;4250944;27;20108;-57
2024/03/04 08:39:31;;;;;;;8.02;1.77;;;10.00;97.40;;;;;;4251094;27;20047;-55
2024/03/04 08:41:42;;;;;;;1.35;0.85;;;10.00;97.70;;;;;;4250616;27;20146;-55
2024/03/04 08:43:45;;;;;;;1.33;1.10;;;10.10;98.00;;;;;;4252325;27;20040;-57
2024/03/04 08:45:48;;;;;;;5.63;1.50;;;10.20;98.10;;;;;;4260902;27;20122;-58
2024/03/04 08:47:52;;;;;;;11.65;1.02;;;10.20;98.00;;;;;;4267691;27;20486;-57
2024/03/04 08:49:56;;;;;;;1.90;1.33;;;10.30;98.30;;;;;;4267801;27;20061;-61
2024/03/04 08:52:00;;;;;;;4.37;2.03;;;10.30;98.20;;;;;;4258909;27;20042;-58
2024/03/04 08:54:02;;;;;;;4.07;1.20;;;10.40;98.10;;;;;;4259761;27;20502;-57
2024/03/04 08:56:05;;;;;;;2.05;1.45;;;10.30;98.00;;;;;;4261872;27;20043;-61
2024/03/04 08:58:08;;;;;;;1.20;0.80;;;10.20;97.50;;;;;;4261543;27;20054;-63
2024/03/04 09:00:12;;;;;;;1.92;1.48;;;10.20;98.00;;;;;;4258525;27;20123;-57
2024/03/04 09:02:14;;;;;;;2.78;1.65;;;10.20;98.00;;;;;;4259642;27;20038;-57
2024/03/04 09:04:16;;;;;;;10.95;1.92;;;10.10;97.70;;;;;;4267440;27;20447;-56
2024/03/04 09:06:19;;;;;;;5.50;2.35;;;10.10;98.10;;;;;;4240256;27;20039;-57
2024/03/04 09:08:21;;;;;;;2.63;1.15;;;10.10;97.70;;;;;;4261627;27;20066;-58
2024/03/04 09:10:23;;;;;;;2.30;1.02;;;10.00;97.90;;;;;;4258287;27;20043;-60
2024/03/04 09:12:27;;;;;;;3.25;1.98;;;10.00;98.50;;;;;;4262194;27;20039;-57
2024/03/04 09:14:30;;;;;;;1.42;1.23;;;9.90;98.30;;;;;;4255493;27;20043;-58
2024/03/04 09:16:32;;;;;;;3.92;1.73;;;9.90;98.00;;;;;;4261275;27;20046;-57
2024/03/04 09:18:38;;;;;;;2.00;1.02;;;9.90;97.90;;;;;;4254267;27;20489;-57
2024/03/04 09:20:40;;;;;;;1.10;0.88;;;9.80;98.00;;;;;;4255408;27;20413;-57
2024/03/04 09:22:42;;;;;;;1.65;1.25;;;9.80;98.50;;;;;;4260241;27;20043;-57
2024/03/04 09:24:45;;;;;;;1.20;1.02;;;9.90;98.20;;;;;;4250571;27;20071;-59
2024/03/04 09:26:47;;;;;;;2.70;1.15;;;9.90;97.70;;;;;;4261051;27;20038;-57
2024/03/04 09:28:50;;;;;;;1.10;0.95;;;10.00;97.50;;;;;;4260147;27;20085;-57
2024/03/04 09:30:54;;;;;;;5.35;1.33;;;10.00;97.70;;;;;;4262475;27;20039;-57
2024/03/04 09:32:56;;;;;;;2.10;1.25;;;10.20;98.10;;;;;;4262984;27;20543;-57
2024/03/04 09:34:59;;;;;;;1.42;1.33;;;10.20;97.70;;;;;;4256112;27;20055;-56
2024/03/04 09:37:01;;;;;;;3.78;1.02;;;10.20;97.30;;;;;;4251025;27;20055;-57
2024/03/04 09:39:05;;;;;;;1.63;0.98;;;10.30;97.10;;;;;;4259855;27;20096;-61
2024/03/04 09:41:07;;;;;;;3.67;0.82;;;10.30;96.90;;;;;;4253568;27;20137;-57
2024/03/04 09:43:11;;;;;;;2.20;1.45;;;10.30;97.00;;;;;;4258764;27;20122;-58
2024/03/04 09:45:16;;;;;;;1.05;0.90;;;10.30;97.00;;;;;;4260119;27;20047;-57
2024/03/04 09:47:20;;;;;;;1.95;1.45;;;10.30;97.10;;;;;;4260520;27;20039;-57
2024/03/04 09:49:28;;;;;;;2.28;1.33;;;10.30;97.00;;;;;;4255495;27;20463;-57
2024/03/04 09:51:32;;;;;;;2.47;0.95;;;10.30;96.90;;;;;;4248812;27;20499;-58
2024/03/04 09:53:38;;;;;;;3.13;1.23;;;10.40;96.60;;;;;;4267579;27;20050;-57
2024/03/04 09:55:40;;;;;;;1.27;0.95;;;10.50;96.10;;;;;;4267086;27;20043;-58
2024/03/04 09:57:42;;;;;;;3.10;1.00;;;10.50;95.40;;;;;;4259389;27;20052;-57
2024/03/04 09:59:45;;;;;;;3.22;1.23;;;10.60;96.10;;;;;;4263818;27;20117;-56
2024/03/04 10:01:48;;;;;;;0.70;0.50;;;10.70;95.40;;;;;;4260816;27;20478;-58
2024/03/04 10:03:51;;;;;;;2.65;0.40;;;10.60;94.40;;;;;;4266098;27;20443;-57
2024/03/04 10:05:54;;;;;;;1.33;0.63;;;10.60;95.00;;;;;;4266368;27;20047;-57
2024/03/04 10:07:56;;;;;;;0.30;0.20;;;10.60;94.20;;;;;;4265808;27;20125;-58
2024/03/04 10:09:59;;;;;;;0.60;0.40;;;10.70;95.00;;;;;;4266540;27;20058;-58
2024/03/04 10:12:02;;;;;;;0.40;0.28;;;10.60;94.70;;;;;;4266453;27;20095;-58
2024/03/04 10:14:05;;;;;;;2.90;0.80;;;10.60;94.50;;;;;;4265807;27;20054;-57
2024/03/04 10:16:13;;;;;;;1.27;0.55;;;10.70;94.00;;;;;;4247689;27;20252;-56
2024/03/04 10:18:16;;;;;;;0.88;0.50;;;10.80;94.30;;;;;;4249003;27;20047;-57
2024/03/04 10:20:23;;;;;;;1.48;0.30;;;10.70;93.50;;;;;;4248927;27;20061;-57
2024/03/04 10:22:30;;;;;;;1.15;0.68;;;10.60;93.90;;;;;;4249305;27;20046;-57
2024/03/04 10:24:33;;;;;;;0.63;0.25;;;10.80;94.30;;;;;;4249088;27;20047;-57
2024/03/04 10:26:41;;;;;;;25.45;2.22;;;10.80;93.50;;;;;;4255488;27;20051;-57
2024/03/04 10:28:45;;;;;;;0.93;0.22;;;10.80;93.70;;;;;;4256951;27;20047;-56
2024/03/04 10:30:47;;;;;;;0.80;0.30;;;10.90;93.40;;;;;;4248501;27;20035;-55
2024/03/04 10:32:50;;;;;;;0.85;0.70;;;11.00;93.90;;;;;;4254406;27;20546;-54
2024/03/04 10:35:01;;;;;;;1.60;0.52;;;11.00;93.30;;;;;;4253763;27;20086;-54
2024/03/04 10:37:05;;;;;;;0.90;0.30;;;10.90;93.00;;;;;;4236457;27;20071;-57
2024/03/04 10:39:14;;;;;;;0.57;0.57;;;10.80;92.60;;;;;;4258088;27;20051;-54
2024/03/04 10:41:17;;;;;;;1.85;0.20;;;10.80;93.20;;;;;;4260017;27;20049;-56
2024/03/04 10:43:20;;;;;;;4.63;0.98;;;10.80;92.80;;;;;;4260321;27;20052;-55
2024/03/04 10:45:23;;;;;;;4.00;0.98;;;10.90;93.10;;;;;;4262924;27;20046;-55
2024/03/04 10:47:29;;;;;;;4.33;1.87;;;11.00;93.40;;;;;;4263157;27;20490;-53
2024/03/04 10:49:32;;;;;;;0.77;0.30;;;11.10;93.00;;;;;;4259535;27;21066;-57